createdAt,value
2019-05-29T00:01:10.606Z,60.98
2019-05-29T00:03:37.341Z,61.43
2019-05-29T00:06:06.272Z,60.70
2019-05-29T00:11:15.433Z,61.25
2019-05-29T00:13:44.126Z,61.11
2019-05-29T00:16:14.447Z,61.04
2019-05-29T00:18:43.562Z,61.05
2019-05-29T00:21:14.610Z,60.75
2019-05-29T00:23:43.524Z,61.29
2019-05-29T00:26:12.485Z,61.12
2019-05-29T00:28:41.670Z,61.83
2019-05-29T00:37:59.701Z,61.58
2019-05-29T00:40:28.331Z,61.11
2019-05-29T00:42:57.286Z,62.31
2019-05-29T00:45:25.983Z,62.00
2019-05-29T00:47:55.083Z,61.20
2019-05-29T00:50:24.376Z,61.67
2019-05-29T00:52:53.257Z,61.39
2019-05-29T00:55:21.978Z,61.38
2019-05-29T00:57:51.431Z,61.71
2019-05-29T01:00:20.189Z,61.15
2019-05-29T01:02:49.349Z,61.78
2019-05-29T01:05:18.460Z,62.70
2019-05-29T01:07:47.201Z,61.35
2019-05-29T01:10:16.865Z,61.71
2019-05-29T01:12:45.516Z,61.63
2019-05-29T01:15:17.455Z,61.62
2019-05-29T01:17:46.190Z,61.50
2019-05-29T01:20:18.080Z,62.17
2019-05-29T01:22:47.012Z,62.05
2019-05-29T01:25:16.590Z,61.69
2019-05-29T01:27:45.702Z,62.42
2019-05-29T01:30:15.095Z,62.12
2019-05-29T01:32:44.175Z,62.37
2019-05-29T01:35:13.763Z,62.43
2019-05-29T01:37:42.894Z,62.43
2019-05-29T01:40:21.139Z,62.26
2019-05-29T01:45:23.603Z,63.09
2019-05-29T01:47:52.361Z,62.42
2019-05-29T01:50:21.755Z,62.60
2019-05-29T01:52:51.191Z,63.47
2019-05-29T01:57:57.470Z,62.61
2019-05-29T02:00:26.593Z,64.36
2019-05-29T02:02:56.089Z,63.33
2019-05-29T02:05:24.764Z,64.57
2019-05-29T02:07:53.883Z,63.28
2019-05-29T02:10:22.778Z,63.46
2019-05-29T02:12:52.177Z,64.37
2019-05-29T02:15:29.929Z,64.28
2019-05-29T02:17:52.132Z,65.44
2019-05-29T02:20:23.046Z,64.78
2019-05-29T02:22:52.723Z,65.38
2019-05-29T02:25:22.766Z,65.54
2019-05-29T02:30:30.868Z,66.69
2019-05-29T02:33:00.189Z,66.56
2019-05-29T02:35:29.707Z,67.37
2019-05-29T02:37:58.841Z,67.28
2019-05-29T02:40:29.484Z,66.89
2019-05-29T02:42:58.400Z,67.75
2019-05-29T02:45:52.083Z,67.51
2019-05-29T02:47:57.500Z,67.53
2019-05-29T02:50:26.791Z,68.37
2019-05-29T02:55:36.475Z,69.91
2019-05-29T02:58:05.167Z,69.48
2019-05-29T03:00:54.335Z,69.65
2019-05-29T03:03:29.539Z,69.80
2019-05-29T03:05:57.337Z,69.54
2019-05-29T03:08:27.284Z,69.68
2019-05-29T03:10:57.464Z,70.35
2019-05-29T03:13:27.610Z,70.37
2019-05-29T03:16:09.332Z,70.53
2019-05-29T03:18:30.010Z,70.47
2019-05-29T03:20:59.134Z,70.97
2019-05-29T03:23:28.989Z,70.91
2019-05-29T03:25:59.101Z,72.15
2019-05-29T03:28:29.802Z,71.49
2019-05-29T03:30:58.696Z,72.75
2019-05-29T03:33:32.489Z,71.64
2019-05-29T03:35:58.207Z,72.13
2019-05-29T03:38:28.291Z,72.58
2019-05-29T03:40:57.196Z,73.37
2019-05-29T03:43:26.246Z,72.83
2019-05-29T03:45:54.816Z,73.17
2019-05-29T03:48:23.703Z,73.69
2019-05-29T03:50:52.366Z,72.80
2019-05-29T03:53:21.052Z,73.97
2019-05-29T03:58:30.950Z,73.43
2019-05-29T04:01:00.472Z,74.52
2019-05-29T04:03:30.969Z,74.86
2019-05-29T04:08:38.435Z,74.56
2019-05-29T04:11:07.854Z,74.84
2019-05-29T04:13:38.749Z,75.28
2019-05-29T04:16:09.709Z,75.16
2019-05-29T04:18:40.060Z,74.29
2019-05-29T04:21:10.812Z,74.41
2019-05-29T04:23:42.806Z,74.65
2019-05-29T04:26:16.999Z,75.12
2019-05-29T04:28:47.023Z,75.07
2019-05-29T04:31:16.009Z,75.19
2019-05-29T04:33:45.028Z,75.76
2019-05-29T04:36:14.077Z,75.61
2019-05-29T04:38:43.042Z,75.23
2019-05-29T04:41:12.512Z,75.33
2019-05-29T04:43:41.558Z,74.88
2019-05-29T04:46:11.870Z,75.56
2019-05-29T04:48:40.803Z,74.54
2019-05-29T04:51:09.827Z,74.91
2019-05-29T04:56:18.660Z,74.96
2019-05-29T04:58:47.299Z,74.88
2019-05-29T05:01:15.923Z,74.79
2019-05-29T05:03:44.982Z,74.25
2019-05-29T05:06:14.429Z,74.27
2019-05-29T05:08:42.942Z,74.64
2019-05-29T05:11:12.451Z,73.82
2019-05-29T05:13:41.984Z,73.62
2019-05-29T05:16:10.694Z,73.17
2019-05-29T05:18:40.224Z,73.67
2019-05-29T05:21:09.227Z,72.88
2019-05-29T05:23:38.222Z,72.27
2019-05-29T05:26:07.742Z,72.86
2019-05-29T05:28:42.185Z,71.91
2019-05-29T05:31:10.803Z,71.62
2019-05-29T05:36:20.041Z,71.71
2019-05-29T05:38:49.046Z,70.40
2019-05-29T05:41:18.032Z,71.10
2019-05-29T05:43:47.446Z,70.66
2019-05-29T05:46:16.166Z,69.38
2019-05-29T05:48:44.786Z,69.15
2019-05-29T05:51:14.228Z,69.89
2019-05-29T05:53:43.485Z,69.70
2019-05-29T05:56:12.156Z,69.71
2019-05-29T05:58:41.964Z,68.67
2019-05-29T06:03:48.530Z,67.35
2019-05-29T06:06:17.483Z,66.62
2019-05-29T06:08:46.099Z,66.62
2019-05-29T06:11:15.071Z,66.03
2019-05-29T06:13:43.744Z,66.13
2019-05-29T06:16:12.411Z,65.85
2019-05-29T06:18:41.073Z,65.42
2019-05-29T06:21:10.351Z,65.84
2019-05-29T06:26:19.101Z,63.54
2019-05-29T06:28:48.026Z,64.05
2019-05-29T06:33:54.763Z,63.52
2019-05-29T06:36:23.407Z,64.23
2019-05-29T06:38:52.348Z,63.73
2019-05-29T06:41:21.371Z,63.35
2019-05-29T06:43:50.339Z,63.50
2019-05-29T06:46:19.353Z,63.17
2019-05-29T06:48:58.835Z,61.18
2019-05-29T06:51:18.678Z,60.93
2019-05-29T06:53:48.250Z,60.95
2019-05-29T06:56:17.714Z,60.75
2019-05-29T06:58:46.727Z,60.59
2019-05-29T07:01:16.113Z,60.93
2019-05-29T07:04:11.797Z,60.90
2019-05-29T07:06:36.444Z,60.45
2019-05-29T07:09:06.595Z,59.66
2019-05-29T07:11:35.542Z,59.94
2019-05-29T07:14:04.765Z,59.69
2019-05-29T07:16:43.951Z,59.07
2019-05-29T07:21:36.631Z,58.81
2019-05-29T07:24:05.257Z,58.42
2019-05-29T07:26:34.648Z,58.41
2019-05-29T07:31:44.794Z,57.08
2019-05-29T07:34:13.852Z,56.33
2019-05-29T07:36:43.991Z,57.27
2019-05-29T07:41:50.498Z,56.51
2019-05-29T07:44:19.059Z,55.63
2019-05-29T07:46:48.875Z,54.01
2019-05-29T07:51:56.115Z,52.74
2019-05-29T07:54:25.335Z,51.39
2019-05-29T07:56:54.313Z,50.38
2019-05-29T07:59:23.200Z,51.89
2019-05-29T08:01:52.740Z,49.70
2019-05-29T08:04:21.691Z,50.94
2019-05-29T08:06:54.397Z,50.90
2019-05-29T08:09:21.544Z,50.59
2019-05-29T08:14:31.104Z,48.81
2019-05-29T08:16:59.967Z,47.61
2019-05-29T08:19:28.811Z,46.90
2019-05-29T08:21:57.441Z,45.13
2019-05-29T08:24:27.300Z,44.48
2019-05-29T08:26:56.057Z,45.25
2019-05-29T08:29:25.044Z,44.22
2019-05-29T08:31:53.936Z,44.96
2019-05-29T08:34:23.582Z,45.72
2019-05-29T08:39:36.001Z,44.71
2019-05-29T08:42:21.505Z,44.85
2019-05-29T08:44:31.108Z,44.85
2019-05-29T08:47:09.735Z,45.14
2019-05-29T08:49:30.835Z,44.60
2019-05-29T08:54:45.969Z,42.47
2019-05-29T08:57:14.931Z,38.74
2019-05-29T08:59:44.420Z,38.74
2019-05-29T09:02:13.070Z,39.29
2019-05-29T09:04:43.023Z,41.75
2019-05-29T09:07:11.983Z,40.80
2019-05-29T09:09:40.611Z,40.54
2019-05-29T09:12:09.204Z,40.55
2019-05-29T09:14:38.186Z,39.97
2019-05-29T09:17:07.713Z,38.82
2019-05-29T09:19:37.025Z,38.44
2019-05-29T09:22:05.904Z,36.53
2019-05-29T09:24:34.934Z,37.78
2019-05-29T09:29:41.101Z,37.78
2019-05-29T09:32:09.673Z,38.59
2019-05-29T09:37:22.411Z,39.23
2019-05-29T09:39:52.159Z,38.72
2019-05-29T09:42:23.549Z,39.84
2019-05-29T09:44:52.404Z,40.17
2019-05-29T09:47:24.080Z,40.50
2019-05-29T09:49:53.145Z,39.61
2019-05-29T09:52:21.816Z,39.02
2019-05-29T09:54:52.942Z,38.62
2019-05-29T09:57:21.431Z,37.22
2019-05-29T09:59:50.402Z,38.26
2019-05-29T10:02:19.087Z,36.82
2019-05-29T10:04:47.737Z,37.60
2019-05-29T10:07:16.645Z,38.34
2019-05-29T10:09:45.226Z,38.39
2019-05-29T10:12:13.922Z,39.28
2019-05-29T10:14:42.824Z,38.67
2019-05-29T10:17:12.941Z,39.10
2019-05-29T10:19:42.257Z,38.52
2019-05-29T10:22:11.181Z,37.17
2019-05-29T10:24:40.484Z,36.75
2019-05-29T10:27:09.977Z,38.45
2019-05-29T10:29:38.881Z,39.31
2019-05-29T10:32:07.483Z,38.34
2019-05-29T10:34:36.060Z,35.39
2019-05-29T10:37:04.927Z,35.58
2019-05-29T10:39:33.831Z,35.25
2019-05-29T10:42:03.329Z,35.39
2019-05-29T10:47:11.725Z,33.46
2019-05-29T10:49:40.702Z,32.97
2019-05-29T10:52:15.740Z,31.89
2019-05-29T10:54:40.320Z,33.06
2019-05-29T10:57:09.155Z,33.84
2019-05-29T10:59:37.781Z,33.98
2019-05-29T11:02:07.041Z,33.47
2019-05-29T11:04:35.791Z,33.59
2019-05-29T11:07:05.022Z,34.11
2019-05-29T11:09:44.047Z,34.32
2019-05-29T11:12:04.628Z,34.46
2019-05-29T11:14:33.196Z,34.64
2019-05-29T11:17:01.796Z,35.35
2019-05-29T11:19:30.913Z,34.99
2019-05-29T11:22:10.879Z,35.26
2019-05-29T11:24:30.297Z,35.41
2019-05-29T11:26:59.334Z,34.74
2019-05-29T11:29:28.226Z,34.27
2019-05-29T11:34:34.447Z,34.45
2019-05-29T11:37:03.276Z,33.99
2019-05-29T11:39:32.177Z,35.21
2019-05-29T11:42:00.777Z,34.05
2019-05-29T11:44:29.332Z,32.71
2019-05-29T11:46:58.262Z,33.88
2019-05-29T11:49:26.910Z,34.19
2019-05-29T11:52:19.298Z,33.96
2019-05-29T11:54:26.071Z,34.35
2019-05-29T11:56:55.547Z,33.43
2019-05-29T12:02:03.339Z,33.87
2019-05-29T12:04:32.858Z,32.97
2019-05-29T12:07:02.261Z,33.22
2019-05-29T12:12:45.464Z,31.78
2019-05-29T12:17:59.932Z,31.51
2019-05-29T12:20:27.996Z,31.57
2019-05-29T12:23:13.327Z,31.64
2019-05-29T12:25:23.790Z,30.99
2019-05-29T12:27:52.799Z,32.35
2019-05-29T12:32:59.255Z,32.88
2019-05-29T12:35:28.806Z,33.04
2019-05-29T12:40:34.930Z,33.72
2019-05-29T12:43:03.891Z,33.20
2019-05-29T12:45:32.464Z,33.11
2019-05-29T12:48:06.418Z,33.20
2019-05-29T12:50:34.636Z,32.70
2019-05-29T12:53:03.836Z,32.76
2019-05-29T12:55:32.945Z,31.88
2019-05-29T12:58:02.325Z,31.88
2019-05-29T13:00:31.505Z,32.65
2019-05-29T13:03:00.802Z,32.31
2019-05-29T13:08:07.195Z,31.70
2019-05-29T13:10:35.779Z,31.67
2019-05-29T13:13:10.009Z,31.35
2019-05-29T13:15:35.335Z,29.61
2019-05-29T13:18:09.265Z,30.21
2019-05-29T13:20:34.589Z,31.41
2019-05-29T13:23:05.463Z,30.23
2019-05-29T13:25:34.643Z,29.77
2019-05-29T13:28:05.734Z,29.33
2019-05-29T13:30:34.724Z,29.54
2019-05-29T13:35:41.293Z,30.45
2019-05-29T13:38:09.820Z,30.82
2019-05-29T13:40:38.883Z,30.56
2019-05-29T13:43:15.056Z,31.18
2019-05-29T13:45:38.473Z,30.61
2019-05-29T13:48:07.563Z,31.71
2019-05-29T13:50:36.778Z,31.94
2019-05-29T13:53:05.669Z,31.25
2019-05-29T13:55:34.333Z,32.25
2019-05-29T13:58:03.776Z,32.76
2019-05-29T14:00:34.791Z,32.31
2019-05-29T14:03:04.818Z,32.80
2019-05-29T14:05:33.685Z,32.32
2019-05-29T14:10:40.533Z,33.56
2019-05-29T14:13:10.337Z,33.23
2019-05-29T14:15:39.883Z,33.67
2019-05-29T14:18:09.097Z,33.38
2019-05-29T14:20:38.125Z,33.55
2019-05-29T14:23:07.508Z,32.32
2019-05-29T14:25:36.975Z,32.15
2019-05-29T14:28:06.808Z,33.02
2019-05-29T14:30:36.219Z,32.76
2019-05-29T14:33:06.715Z,33.42
2019-05-29T14:35:35.858Z,32.86
2019-05-29T14:38:08.915Z,32.06
2019-05-29T14:40:36.702Z,31.91
2019-05-29T14:43:08.521Z,32.60
2019-05-29T14:45:36.640Z,32.67
2019-05-29T14:48:06.332Z,34.54
2019-05-29T14:50:35.408Z,36.39
2019-05-29T14:53:04.996Z,34.85
2019-05-29T14:58:14.418Z,33.43
2019-05-29T15:00:43.397Z,33.16
2019-05-29T15:03:13.459Z,33.67
2019-05-29T15:05:42.815Z,33.62
2019-05-29T15:08:12.065Z,33.35
2019-05-29T15:10:40.850Z,35.19
2019-05-29T15:13:11.166Z,33.47
2019-05-29T15:15:41.339Z,33.45
2019-05-29T15:18:15.151Z,33.28
2019-05-29T15:20:42.809Z,35.13
2019-05-29T15:23:11.651Z,34.57
2019-05-29T15:25:41.139Z,35.58
2019-05-29T15:28:13.630Z,36.92
2019-05-29T15:30:41.438Z,36.49
2019-05-29T15:33:10.949Z,36.52
2019-05-29T15:35:39.951Z,36.73
2019-05-29T15:38:10.663Z,37.33
2019-05-29T15:40:40.903Z,38.00
2019-05-29T15:43:10.812Z,36.62
2019-05-29T15:45:40.010Z,35.82
2019-05-29T15:48:09.020Z,35.13
2019-05-29T15:50:38.345Z,35.02
2019-05-29T15:53:08.914Z,34.66
2019-05-29T15:55:37.854Z,34.65
2019-05-29T16:00:44.922Z,34.84
2019-05-29T16:03:15.628Z,34.39
2019-05-29T16:05:45.807Z,33.25
2019-05-29T16:08:16.085Z,34.00
2019-05-29T16:10:45.177Z,33.93
2019-05-29T16:13:15.026Z,32.51
2019-05-29T16:15:44.533Z,32.69
2019-05-29T16:18:25.725Z,32.58
2019-05-29T16:20:44.178Z,32.45
2019-05-29T16:23:28.243Z,33.85
2019-05-29T16:25:44.476Z,34.06
2019-05-29T16:28:15.068Z,33.52
2019-05-29T16:30:44.874Z,35.56
2019-05-29T16:33:15.059Z,36.58
2019-05-29T16:39:31.029Z,37.55
2019-05-29T16:42:01.179Z,39.95
2019-05-29T16:44:30.131Z,40.34
2019-05-29T16:46:58.861Z,40.14
2019-05-29T16:51:56.831Z,38.75
2019-05-29T16:54:26.216Z,40.03
2019-05-29T16:56:54.874Z,39.18
2019-05-29T16:59:24.937Z,39.90
2019-05-29T17:01:54.224Z,39.04
2019-05-29T17:04:23.888Z,37.23
2019-05-29T17:06:53.041Z,37.84
2019-05-29T17:09:22.349Z,37.49
2019-05-29T17:11:51.925Z,37.49
2019-05-29T17:17:00.578Z,39.08
2019-05-29T17:19:29.185Z,38.08
2019-05-29T17:21:58.524Z,39.81
2019-05-29T17:24:27.649Z,38.77
2019-05-29T17:29:36.813Z,40.31
2019-05-29T17:32:05.507Z,41.64
2019-05-29T17:34:34.513Z,40.32
2019-05-29T17:37:04.031Z,39.54
2019-05-29T17:42:09.846Z,39.62
2019-05-29T17:44:38.518Z,38.42
2019-05-29T17:47:07.520Z,38.56
2019-05-29T17:49:36.183Z,38.56
2019-05-29T17:52:05.190Z,39.24
2019-05-29T17:54:33.929Z,40.04
2019-05-29T17:57:03.059Z,38.95
2019-05-29T17:59:31.755Z,39.07
2019-05-29T18:02:00.841Z,39.05
2019-05-29T18:04:29.512Z,39.51
2019-05-29T18:06:58.166Z,40.01
2019-05-29T18:12:09.177Z,40.97
2019-05-29T18:14:37.904Z,39.96
2019-05-29T18:17:06.581Z,39.91
2019-05-29T18:19:35.639Z,40.06
2019-05-29T18:22:04.335Z,40.08
2019-05-29T18:24:32.893Z,39.17
2019-05-29T18:27:01.864Z,40.67
2019-05-29T18:29:30.737Z,41.50
2019-05-29T18:31:59.681Z,41.96
2019-05-29T18:34:29.596Z,42.67
2019-05-29T18:36:59.162Z,41.44
2019-05-29T18:39:28.439Z,41.89
2019-05-29T18:41:57.765Z,42.35
2019-05-29T18:44:26.966Z,42.89
2019-05-29T18:47:04.595Z,43.57
2019-05-29T18:49:33.236Z,43.55
2019-05-29T18:52:02.247Z,43.31
2019-05-29T18:54:32.975Z,43.17
2019-05-29T18:57:14.425Z,42.71
2019-05-29T18:59:32.379Z,42.70
2019-05-29T19:02:01.348Z,43.04
2019-05-29T19:04:30.133Z,43.65
2019-05-29T19:06:59.586Z,44.45
2019-05-29T19:12:06.478Z,45.39
2019-05-29T19:14:35.784Z,47.43
2019-05-29T19:17:05.080Z,49.59
2019-05-29T19:22:13.685Z,52.29
2019-05-29T19:24:42.690Z,53.34
2019-05-29T19:27:11.521Z,53.71
2019-05-29T19:29:40.527Z,54.22
2019-05-29T19:32:09.991Z,52.80
2019-05-29T19:34:38.632Z,52.79
2019-05-29T19:37:07.250Z,53.21
2019-05-29T19:39:35.984Z,54.10
2019-05-29T19:42:04.800Z,53.77
2019-05-29T19:44:35.017Z,53.34
2019-05-29T19:47:03.805Z,53.46
2019-05-29T19:49:32.983Z,54.80
2019-05-29T19:52:02.329Z,54.84
2019-05-29T19:54:31.588Z,56.50
2019-05-29T19:57:00.167Z,56.75
2019-05-29T19:59:29.993Z,55.81
2019-05-29T20:01:58.882Z,56.36
2019-05-29T20:04:28.471Z,56.71
2019-05-29T20:06:57.937Z,57.57
2019-05-29T20:09:27.474Z,56.61
2019-05-29T20:11:56.241Z,56.04
2019-05-29T20:14:24.944Z,55.48
2019-05-29T20:16:53.716Z,55.96
2019-05-29T20:22:02.488Z,55.75
2019-05-29T20:24:32.708Z,56.13
2019-05-29T20:29:40.988Z,55.81
2019-05-29T20:32:09.631Z,56.72
2019-05-29T20:34:39.055Z,56.24
2019-05-29T20:37:08.283Z,56.26
2019-05-29T20:39:36.919Z,56.86
2019-05-29T20:42:05.554Z,59.15
2019-05-29T20:44:34.591Z,57.47
2019-05-29T20:47:03.812Z,57.17
2019-05-29T20:49:33.774Z,59.76
2019-05-29T20:52:02.484Z,59.96
2019-05-29T20:54:31.834Z,59.51
2019-05-29T20:57:09.978Z,59.62
2019-05-29T20:59:40.297Z,59.43
2019-05-29T21:04:48.842Z,58.91
2019-05-29T21:07:17.506Z,59.56
2019-05-29T21:09:46.153Z,59.34
2019-05-29T21:12:15.182Z,60.33
2019-05-29T21:14:44.744Z,60.63
2019-05-29T21:17:13.636Z,60.41
2019-05-29T21:19:42.621Z,60.48
2019-05-29T21:22:11.220Z,60.07
2019-05-29T21:24:40.685Z,61.39
2019-05-29T21:27:09.390Z,62.45
2019-05-29T21:29:39.118Z,62.69
2019-05-29T21:32:07.794Z,63.16
2019-05-29T21:34:37.828Z,64.23
2019-05-29T21:37:06.483Z,64.23
2019-05-29T21:39:36.280Z,63.62
2019-05-29T21:42:05.207Z,63.64
2019-05-29T21:44:33.849Z,62.31
2019-05-29T21:47:02.659Z,62.35
2019-05-29T21:49:31.800Z,62.92
2019-05-29T21:54:43.554Z,62.31
2019-05-29T21:57:13.413Z,61.94
2019-05-29T21:59:42.403Z,62.13
2019-05-29T22:02:11.996Z,61.98
2019-05-29T22:04:42.304Z,64.04
2019-05-29T22:07:11.869Z,66.36
2019-05-29T22:09:41.438Z,67.04
2019-05-29T22:12:10.790Z,67.08
2019-05-29T22:14:39.746Z,66.95
2019-05-29T22:17:08.539Z,66.37
2019-05-29T22:19:37.186Z,65.72
2019-05-29T22:24:45.368Z,64.18
2019-05-29T22:27:13.934Z,65.13
2019-05-29T22:29:42.880Z,65.26
2019-05-29T22:32:11.549Z,66.02
2019-05-29T22:34:40.264Z,64.87
2019-05-29T22:37:08.930Z,63.55
2019-05-29T22:39:37.734Z,63.17
2019-05-29T22:42:06.590Z,62.57
2019-05-29T22:44:35.224Z,62.63
2019-05-29T22:47:04.253Z,62.07
2019-05-29T22:52:10.948Z,61.76
2019-05-29T22:54:40.034Z,61.80
2019-05-29T22:57:08.774Z,61.87
2019-05-29T22:59:37.771Z,61.75
2019-05-29T23:02:06.664Z,61.58
2019-05-29T23:04:35.274Z,61.25
2019-05-29T23:07:04.803Z,61.74
2019-05-29T23:09:33.518Z,61.90
2019-05-29T23:14:39.706Z,62.53
2019-05-29T23:17:08.910Z,62.77
2019-05-29T23:19:38.183Z,62.83
2019-05-29T23:22:07.668Z,63.15
2019-05-29T23:24:36.944Z,63.22
2019-05-29T23:27:07.055Z,63.48
2019-05-29T23:29:48.466Z,63.46
2019-05-29T23:34:47.807Z,64.06
2019-05-29T23:37:16.910Z,63.75
2019-05-29T23:39:45.864Z,64.36
2019-05-29T23:42:14.877Z,64.12
2019-05-29T23:44:44.032Z,64.37
2019-05-29T23:47:12.977Z,64.40
2019-05-29T23:49:41.633Z,64.46
2019-05-29T23:52:10.546Z,64.41
2019-05-29T23:57:18.406Z,64.09
2019-05-29T23:59:47.211Z,63.78
